sensor_id;sensor_type;location;lat;lon;timestamp;P1;durP1;ratioP1;P2;durP2;ratioP2
19547;SDS011;9919;58.014;11.826;2022-12-18T00:00:28;1.08;;;0.88;;
19547;SDS011;9919;58.014;11.826;2022-12-18T00:02:30;2.05;;;1.30;;
19547;SDS011;9919;58.014;11.826;2022-12-18T00:04:31;1.25;;;0.80;;
19547;SDS011;9919;58.014;11.826;2022-12-18T00:06:34;2.10;;;1.17;;
19547;SDS011;9919;58.014;11.826;2022-12-18T00:08:36;0.98;;;0.98;;
19547;SDS011;9919;58.014;11.826;2022-12-18T00:10:37;0.77;;;0.77;;
19547;SDS011;9919;58.014;11.826;2022-12-18T00:12:38;1.00;;;0.90;;
19547;SDS011;9919;58.014;11.826;2022-12-18T00:14:40;1.05;;;0.88;;
19547;SDS011;9919;58.014;11.826;2022-12-18T00:16:45;0.98;;;0.80;;
19547;SDS011;9919;58.014;11.826;2022-12-18T00:18:47;2.17;;;1.10;;
19547;SDS011;9919;58.014;11.826;2022-12-18T00:20:49;0.95;;;0.88;;
19547;SDS011;9919;58.014;11.826;2022-12-18T00:22:51;0.82;;;0.82;;
19547;SDS011;9919;58.014;11.826;2022-12-18T00:24:53;1.60;;;1.33;;
19547;SDS011;9919;58.014;11.826;2022-12-18T00:26:54;1.08;;;1.08;;
19547;SDS011;9919;58.014;11.826;2022-12-18T00:28:59;2.60;;;1.00;;
19547;SDS011;9919;58.014;11.826;2022-12-18T00:31:03;1.10;;;0.98;;
19547;SDS011;9919;58.014;11.826;2022-12-18T00:33:06;1.00;;;1.00;;
19547;SDS011;9919;58.014;11.826;2022-12-18T00:35:07;2.75;;;0.80;;
19547;SDS011;9919;58.014;11.826;2022-12-18T00:37:09;1.00;;;0.88;;
19547;SDS011;9919;58.014;11.826;2022-12-18T00:39:11;0.82;;;0.70;;
19547;SDS011;9919;58.014;11.826;2022-12-18T00:41:14;0.80;;;0.80;;
19547;SDS011;9919;58.014;11.826;2022-12-18T00:43:37;1.23;;;1.13;;
19547;SDS011;9919;58.014;11.826;2022-12-18T00:45:38;1.17;;;1.10;;
19547;SDS011;9919;58.014;11.826;2022-12-18T00:47:41;0.98;;;0.98;;
19547;SDS011;9919;58.014;11.826;2022-12-18T00:49:42;1.20;;;1.00;;
19547;SDS011;9919;58.014;11.826;2022-12-18T00:51:43;1.20;;;1.13;;
19547;SDS011;9919;58.014;11.826;2022-12-18T00:53:45;0.90;;;0.90;;
19547;SDS011;9919;58.014;11.826;2022-12-18T00:55:46;0.90;;;0.90;;
19547;SDS011;9919;58.014;11.826;2022-12-18T00:57:47;1.92;;;0.88;;
19547;SDS011;9919;58.014;11.826;2022-12-18T00:59:50;1.45;;;1.13;;
19547;SDS011;9919;58.014;11.826;2022-12-18T01:01:52;0.90;;;0.90;;
19547;SDS011;9919;58.014;11.826;2022-12-18T01:03:53;2.05;;;1.17;;
19547;SDS011;9919;58.014;11.826;2022-12-18T01:05:55;1.10;;;0.90;;
19547;SDS011;9919;58.014;11.826;2022-12-18T01:07:57;1.17;;;1.08;;
19547;SDS011;9919;58.014;11.826;2022-12-18T01:10:00;1.63;;;1.20;;
19547;SDS011;9919;58.014;11.826;2022-12-18T01:12:03;1.23;;;1.13;;
19547;SDS011;9919;58.014;11.826;2022-12-18T01:14:05;1.20;;;1.10;;
19547;SDS011;9919;58.014;11.826;2022-12-18T01:16:07;0.88;;;0.88;;
19547;SDS011;9919;58.014;11.826;2022-12-18T01:18:08;1.17;;;1.08;;
19547;SDS011;9919;58.014;11.826;2022-12-18T01:20:11;2.03;;;0.90;;
19547;SDS011;9919;58.014;11.826;2022-12-18T01:22:13;0.73;;;0.73;;
19547;SDS011;9919;58.014;11.826;2022-12-18T01:24:16;2.20;;;1.13;;
19547;SDS011;9919;58.014;11.826;2022-12-18T01:26:18;0.77;;;0.77;;
19547;SDS011;9919;58.014;11.826;2022-12-18T01:28:19;1.17;;;0.85;;
19547;SDS011;9919;58.014;11.826;2022-12-18T01:30:21;0.90;;;0.90;;
19547;SDS011;9919;58.014;11.826;2022-12-18T01:32:22;0.77;;;0.73;;
19547;SDS011;9919;58.014;11.826;2022-12-18T01:34:25;1.00;;;1.00;;
19547;SDS011;9919;58.014;11.826;2022-12-18T01:36:27;0.57;;;0.57;;
19547;SDS011;9919;58.014;11.826;2022-12-18T01:38:30;1.27;;;1.13;;
19547;SDS011;9919;58.014;11.826;2022-12-18T01:40:31;2.55;;;0.90;;
19547;SDS011;9919;58.014;11.826;2022-12-18T01:42:32;1.10;;;1.00;;
19547;SDS011;9919;58.014;11.826;2022-12-18T01:46:55;0.90;;;0.90;;
19547;SDS011;9919;58.014;11.826;2022-12-18T01:48:57;1.95;;;1.02;;
19547;SDS011;9919;58.014;11.826;2022-12-18T01:51:00;1.90;;;1.23;;
19547;SDS011;9919;58.014;11.826;2022-12-18T01:53:13;1.27;;;0.98;;
19547;SDS011;9919;58.014;11.826;2022-12-18T01:55:16;1.88;;;0.93;;
19547;SDS011;9919;58.014;11.826;2022-12-18T01:57:19;1.08;;;0.98;;
19547;SDS011;9919;58.014;11.826;2022-12-18T01:59:21;1.48;;;0.90;;
19547;SDS011;9919;58.014;11.826;2022-12-18T02:01:23;1.05;;;0.98;;
19547;SDS011;9919;58.014;11.826;2022-12-18T02:03:24;1.10;;;1.00;;
19547;SDS011;9919;58.014;11.826;2022-12-18T02:05:29;1.75;;;1.15;;
19547;SDS011;9919;58.014;11.826;2022-12-18T02:12:26;3.20;;;1.10;;
19547;SDS011;9919;58.014;11.826;2022-12-18T02:14:45;1.58;;;0.98;;
19547;SDS011;9919;58.014;11.826;2022-12-18T02:23:57;1.05;;;1.05;;
19547;SDS011;9919;58.014;11.826;2022-12-18T02:26:30;0.80;;;0.80;;
19547;SDS011;9919;58.014;11.826;2022-12-18T02:28:42;1.35;;;0.73;;
19547;SDS011;9919;58.014;11.826;2022-12-18T02:31:09;0.98;;;0.93;;
19547;SDS011;9919;58.014;11.826;2022-12-18T02:33:14;1.95;;;1.23;;
19547;SDS011;9919;58.014;11.826;2022-12-18T02:35:20;0.95;;;0.88;;
19547;SDS011;9919;58.014;11.826;2022-12-18T02:37:24;1.75;;;1.33;;
19547;SDS011;9919;58.014;11.826;2022-12-18T02:39:26;1.90;;;1.20;;
19547;SDS011;9919;58.014;11.826;2022-12-18T02:41:29;1.20;;;0.90;;
19547;SDS011;9919;58.014;11.826;2022-12-18T02:43:31;1.10;;;0.88;;
19547;SDS011;9919;58.014;11.826;2022-12-18T02:45:33;0.50;;;0.50;;
19547;SDS011;9919;58.014;11.826;2022-12-18T02:47:38;1.48;;;0.75;;
19547;SDS011;9919;58.014;11.826;2022-12-18T02:54:23;0.90;;;0.80;;
19547;SDS011;9919;58.014;11.826;2022-12-18T02:56:42;1.58;;;1.00;;
19547;SDS011;9919;58.014;11.826;2022-12-18T03:01:09;0.70;;;0.70;;
19547;SDS011;9919;58.014;11.826;2022-12-18T03:05:27;1.73;;;0.82;;
19547;SDS011;9919;58.014;11.826;2022-12-18T03:07:44;2.08;;;1.20;;
19547;SDS011;9919;58.014;11.826;2022-12-18T03:10:07;1.25;;;1.15;;
19547;SDS011;9919;58.014;11.826;2022-12-18T03:12:14;2.05;;;1.00;;
19547;SDS011;9919;58.014;11.826;2022-12-18T03:14:30;0.70;;;0.70;;
19547;SDS011;9919;58.014;11.826;2022-12-18T03:16:33;0.77;;;0.77;;
19547;SDS011;9919;58.014;11.826;2022-12-18T03:18:39;0.77;;;0.77;;
19547;SDS011;9919;58.014;11.826;2022-12-18T03:20:48;1.67;;;0.75;;
19547;SDS011;9919;58.014;11.826;2022-12-18T03:22:56;0.88;;;0.80;;
19547;SDS011;9919;58.014;11.826;2022-12-18T03:25:02;1.13;;;1.10;;
19547;SDS011;9919;58.014;11.826;2022-12-18T03:27:08;0.85;;;0.85;;
19547;SDS011;9919;58.014;11.826;2022-12-18T03:29:21;0.73;;;0.73;;
19547;SDS011;9919;58.014;11.826;2022-12-18T03:31:45;1.10;;;0.73;;
19547;SDS011;9919;58.014;11.826;2022-12-18T03:33:53;0.93;;;0.93;;
19547;SDS011;9919;58.014;11.826;2022-12-18T03:35:59;1.35;;;1.08;;
19547;SDS011;9919;58.014;11.826;2022-12-18T03:38:00;1.10;;;1.00;;
19547;SDS011;9919;58.014;11.826;2022-12-18T03:40:03;0.90;;;0.90;;
19547;SDS011;9919;58.014;11.826;2022-12-18T03:54:18;1.92;;;0.98;;
19547;SDS011;9919;58.014;11.826;2022-12-18T03:56:20;1.00;;;0.90;;
19547;SDS011;9919;58.014;11.826;2022-12-18T03:58:24;0.60;;;0.60;;
19547;SDS011;9919;58.014;11.826;2022-12-18T04:00:26;1.50;;;0.95;;
19547;SDS011;9919;58.014;11.826;2022-12-18T04:02:30;1.15;;;1.02;;
19547;SDS011;9919;58.014;11.826;2022-12-18T04:04:32;0.47;;;0.47;;
19547;SDS011;9919;58.014;11.826;2022-12-18T04:06:36;0.50;;;0.50;;
19547;SDS011;9919;58.014;11.826;2022-12-18T04:08:38;1.20;;;0.63;;
19547;SDS011;9919;58.014;11.826;2022-12-18T04:10:40;1.17;;;0.70;;
19547;SDS011;9919;58.014;11.826;2022-12-18T04:12:42;1.15;;;1.00;;
19547;SDS011;9919;58.014;11.826;2022-12-18T04:14:44;1.42;;;0.90;;
19547;SDS011;9919;58.014;11.826;2022-12-18T04:16:45;0.98;;;0.80;;
19547;SDS011;9919;58.014;11.826;2022-12-18T04:18:47;1.20;;;0.75;;
19547;SDS011;9919;58.014;11.826;2022-12-18T04:20:48;1.30;;;0.73;;
19547;SDS011;9919;58.014;11.826;2022-12-18T04:22:50;0.82;;;0.82;;
19547;SDS011;9919;58.014;11.826;2022-12-18T04:24:51;0.70;;;0.70;;
19547;SDS011;9919;58.014;11.826;2022-12-18T04:26:52;1.30;;;0.77;;
19547;SDS011;9919;58.014;11.826;2022-12-18T04:28:54;0.80;;;0.80;;
19547;SDS011;9919;58.014;11.826;2022-12-18T04:30:55;1.50;;;0.88;;
19547;SDS011;9919;58.014;11.826;2022-12-18T04:32:57;0.70;;;0.70;;
19547;SDS011;9919;58.014;11.826;2022-12-18T04:35:00;0.70;;;0.70;;
19547;SDS011;9919;58.014;11.826;2022-12-18T04:37:04;0.68;;;0.68;;
19547;SDS011;9919;58.014;11.826;2022-12-18T04:39:05;0.80;;;0.80;;
19547;SDS011;9919;58.014;11.826;2022-12-18T04:41:08;0.85;;;0.85;;
19547;SDS011;9919;58.014;11.826;2022-12-18T04:43:10;0.70;;;0.70;;
19547;SDS011;9919;58.014;11.826;2022-12-18T04:45:12;0.82;;;0.80;;
19547;SDS011;9919;58.014;11.826;2022-12-18T04:47:13;0.63;;;0.63;;
19547;SDS011;9919;58.014;11.826;2022-12-18T04:49:15;1.23;;;0.77;;
19547;SDS011;9919;58.014;11.826;2022-12-18T04:51:16;1.77;;;0.68;;
19547;SDS011;9919;58.014;11.826;2022-12-18T04:53:17;1.08;;;0.80;;
19547;SDS011;9919;58.014;11.826;2022-12-18T04:55:19;0.63;;;0.63;;
19547;SDS011;9919;58.014;11.826;2022-12-18T04:57:20;0.98;;;0.95;;
19547;SDS011;9919;58.014;11.826;2022-12-18T04:59:22;1.75;;;0.82;;
19547;SDS011;9919;58.014;11.826;2022-12-18T05:01:23;1.33;;;1.08;;
19547;SDS011;9919;58.014;11.826;2022-12-18T05:03:24;1.60;;;1.05;;
19547;SDS011;9919;58.014;11.826;2022-12-18T05:05:26;0.60;;;0.60;;
19547;SDS011;9919;58.014;11.826;2022-12-18T05:07:27;0.80;;;0.65;;
19547;SDS011;9919;58.014;11.826;2022-12-18T05:09:29;2.05;;;0.80;;
19547;SDS011;9919;58.014;11.826;2022-12-18T05:11:31;0.98;;;0.73;;
19547;SDS011;9919;58.014;11.826;2022-12-18T05:13:32;1.15;;;1.10;;
19547;SDS011;9919;58.014;11.826;2022-12-18T05:15:35;1.15;;;0.88;;
19547;SDS011;9919;58.014;11.826;2022-12-18T05:17:36;0.85;;;0.80;;
19547;SDS011;9919;58.014;11.826;2022-12-18T05:19:38;0.73;;;0.73;;
19547;SDS011;9919;58.014;11.826;2022-12-18T05:21:40;0.80;;;0.80;;
19547;SDS011;9919;58.014;11.826;2022-12-18T05:23:42;0.70;;;0.70;;
19547;SDS011;9919;58.014;11.826;2022-12-18T05:25:46;1.02;;;1.02;;
19547;SDS011;9919;58.014;11.826;2022-12-18T05:27:52;0.77;;;0.77;;
19547;SDS011;9919;58.014;11.826;2022-12-18T05:29:54;3.63;;;0.68;;
19547;SDS011;9919;58.014;11.826;2022-12-18T05:31:55;0.70;;;0.70;;
19547;SDS011;9919;58.014;11.826;2022-12-18T05:33:57;0.85;;;0.80;;
19547;SDS011;9919;58.014;11.826;2022-12-18T05:35:59;0.75;;;0.75;;
19547;SDS011;9919;58.014;11.826;2022-12-18T05:38:01;0.93;;;0.88;;
19547;SDS011;9919;58.014;11.826;2022-12-18T05:40:03;0.93;;;0.70;;
19547;SDS011;9919;58.014;11.826;2022-12-18T05:42:05;0.80;;;0.80;;
19547;SDS011;9919;58.014;11.826;2022-12-18T05:44:06;0.63;;;0.63;;
19547;SDS011;9919;58.014;11.826;2022-12-18T05:46:11;0.93;;;0.68;;
19547;SDS011;9919;58.014;11.826;2022-12-18T05:48:14;0.50;;;0.50;;
19547;SDS011;9919;58.014;11.826;2022-12-18T05:50:16;0.70;;;0.70;;
19547;SDS011;9919;58.014;11.826;2022-12-18T05:52:18;0.40;;;0.40;;
19547;SDS011;9919;58.014;11.826;2022-12-18T05:54:19;0.82;;;0.82;;
19547;SDS011;9919;58.014;11.826;2022-12-18T05:56:22;1.23;;;0.85;;
19547;SDS011;9919;58.014;11.826;2022-12-18T05:58:23;0.77;;;0.77;;
19547;SDS011;9919;58.014;11.826;2022-12-18T06:00:25;1.00;;;0.70;;
19547;SDS011;9919;58.014;11.826;2022-12-18T06:02:27;1.63;;;0.70;;
19547;SDS011;9919;58.014;11.826;2022-12-18T06:04:28;0.60;;;0.60;;
19547;SDS011;9919;58.014;11.826;2022-12-18T06:06:30;2.63;;;0.90;;
19547;SDS011;9919;58.014;11.826;2022-12-18T06:08:31;0.85;;;0.80;;
19547;SDS011;9919;58.014;11.826;2022-12-18T06:10:34;0.73;;;0.73;;
19547;SDS011;9919;58.014;11.826;2022-12-18T06:12:35;0.60;;;0.60;;
19547;SDS011;9919;58.014;11.826;2022-12-18T06:14:37;0.50;;;0.50;;
19547;SDS011;9919;58.014;11.826;2022-12-18T06:16:39;1.23;;;0.70;;
19547;SDS011;9919;58.014;11.826;2022-12-18T06:18:40;0.55;;;0.55;;
19547;SDS011;9919;58.014;11.826;2022-12-18T06:20:41;0.90;;;0.60;;
19547;SDS011;9919;58.014;11.826;2022-12-18T06:22:44;0.50;;;0.50;;
19547;SDS011;9919;58.014;11.826;2022-12-18T06:24:45;1.10;;;0.50;;
19547;SDS011;9919;58.014;11.826;2022-12-18T06:26:47;0.80;;;0.63;;
19547;SDS011;9919;58.014;11.826;2022-12-18T06:28:49;0.70;;;0.70;;
19547;SDS011;9919;58.014;11.826;2022-12-18T06:30:50;1.38;;;0.65;;
19547;SDS011;9919;58.014;11.826;2022-12-18T06:32:52;0.63;;;0.63;;
19547;SDS011;9919;58.014;11.826;2022-12-18T06:34:54;0.70;;;0.70;;
19547;SDS011;9919;58.014;11.826;2022-12-18T06:36:55;0.80;;;0.80;;
19547;SDS011;9919;58.014;11.826;2022-12-18T06:38:57;1.00;;;0.63;;
19547;SDS011;9919;58.014;11.826;2022-12-18T06:40:58;1.55;;;0.90;;
19547;SDS011;9919;58.014;11.826;2022-12-18T06:43:00;3.80;;;0.70;;
19547;SDS011;9919;58.014;11.826;2022-12-18T06:45:01;1.42;;;0.65;;
19547;SDS011;9919;58.014;11.826;2022-12-18T06:47:03;1.10;;;0.57;;
19547;SDS011;9919;58.014;11.826;2022-12-18T06:49:05;0.55;;;0.55;;
19547;SDS011;9919;58.014;11.826;2022-12-18T06:51:09;2.28;;;0.63;;
19547;SDS011;9919;58.014;11.826;2022-12-18T06:53:11;1.48;;;0.93;;
19547;SDS011;9919;58.014;11.826;2022-12-18T06:55:13;0.65;;;0.60;;
19547;SDS011;9919;58.014;11.826;2022-12-18T06:57:15;0.82;;;0.82;;
19547;SDS011;9919;58.014;11.826;2022-12-18T06:59:16;0.90;;;0.60;;
19547;SDS011;9919;58.014;11.826;2022-12-18T07:01:18;2.80;;;0.65;;
19547;SDS011;9919;58.014;11.826;2022-12-18T07:03:19;0.85;;;0.57;;
19547;SDS011;9919;58.014;11.826;2022-12-18T07:05:20;0.95;;;0.52;;
19547;SDS011;9919;58.014;11.826;2022-12-18T07:07:22;1.95;;;0.73;;
19547;SDS011;9919;58.014;11.826;2022-12-18T07:09:24;1.55;;;0.60;;
19547;SDS011;9919;58.014;11.826;2022-12-18T07:11:25;1.02;;;0.70;;
19547;SDS011;9919;58.014;11.826;2022-12-18T07:13:27;0.70;;;0.70;;
19547;SDS011;9919;58.014;11.826;2022-12-18T07:15:28;1.95;;;0.85;;
19547;SDS011;9919;58.014;11.826;2022-12-18T07:17:29;1.35;;;0.85;;
19547;SDS011;9919;58.014;11.826;2022-12-18T07:19:32;0.65;;;0.65;;
19547;SDS011;9919;58.014;11.826;2022-12-18T07:21:35;0.60;;;0.60;;
19547;SDS011;9919;58.014;11.826;2022-12-18T07:23:37;0.60;;;0.60;;
19547;SDS011;9919;58.014;11.826;2022-12-18T07:25:39;0.90;;;0.70;;
19547;SDS011;9919;58.014;11.826;2022-12-18T07:27:40;0.38;;;0.30;;
19547;SDS011;9919;58.014;11.826;2022-12-18T07:29:42;1.23;;;0.85;;
19547;SDS011;9919;58.014;11.826;2022-12-18T07:31:44;0.50;;;0.50;;
19547;SDS011;9919;58.014;11.826;2022-12-18T07:33:45;1.77;;;0.45;;
19547;SDS011;9919;58.014;11.826;2022-12-18T07:35:47;1.17;;;0.60;;
19547;SDS011;9919;58.014;11.826;2022-12-18T07:37:48;0.47;;;0.47;;
19547;SDS011;9919;58.014;11.826;2022-12-18T07:39:49;0.60;;;0.60;;
19547;SDS011;9919;58.014;11.826;2022-12-18T07:41:51;1.25;;;0.77;;
19547;SDS011;9919;58.014;11.826;2022-12-18T07:44:11;1.65;;;0.70;;
19547;SDS011;9919;58.014;11.826;2022-12-18T07:46:14;0.55;;;0.55;;
19547;SDS011;9919;58.014;11.826;2022-12-18T07:48:15;3.10;;;0.77;;
19547;SDS011;9919;58.014;11.826;2022-12-18T07:50:16;1.00;;;0.73;;
19547;SDS011;9919;58.014;11.826;2022-12-18T07:52:18;0.77;;;0.75;;
19547;SDS011;9919;58.014;11.826;2022-12-18T07:54:20;1.17;;;0.82;;
19547;SDS011;9919;58.014;11.826;2022-12-18T07:56:23;0.75;;;0.70;;
19547;SDS011;9919;58.014;11.826;2022-12-18T07:58:24;0.40;;;0.40;;
19547;SDS011;9919;58.014;11.826;2022-12-18T08:00:28;1.00;;;0.65;;
19547;SDS011;9919;58.014;11.826;2022-12-18T08:02:31;0.98;;;0.65;;
19547;SDS011;9919;58.014;11.826;2022-12-18T08:04:32;1.55;;;0.73;;
19547;SDS011;9919;58.014;11.826;2022-12-18T08:06:34;1.23;;;1.00;;
19547;SDS011;9919;58.014;11.826;2022-12-18T08:08:36;1.40;;;0.60;;
19547;SDS011;9919;58.014;11.826;2022-12-18T08:10:38;0.60;;;0.60;;
19547;SDS011;9919;58.014;11.826;2022-12-18T08:12:39;1.67;;;0.65;;
19547;SDS011;9919;58.014;11.826;2022-12-18T08:14:40;2.83;;;0.93;;
19547;SDS011;9919;58.014;11.826;2022-12-18T08:16:44;1.23;;;0.80;;
19547;SDS011;9919;58.014;11.826;2022-12-18T08:18:45;1.52;;;0.68;;
19547;SDS011;9919;58.014;11.826;2022-12-18T08:20:46;0.45;;;0.40;;
19547;SDS011;9919;58.014;11.826;2022-12-18T08:22:48;0.73;;;0.68;;
19547;SDS011;9919;58.014;11.826;2022-12-18T08:24:50;2.25;;;0.50;;
19547;SDS011;9919;58.014;11.826;2022-12-18T08:26:52;1.38;;;0.75;;
19547;SDS011;9919;58.014;11.826;2022-12-18T08:28:54;1.35;;;0.75;;
19547;SDS011;9919;58.014;11.826;2022-12-18T08:30:56;1.00;;;0.90;;
19547;SDS011;9919;58.014;11.826;2022-12-18T08:32:58;0.55;;;0.55;;
19547;SDS011;9919;58.014;11.826;2022-12-18T08:34:59;2.38;;;0.57;;
19547;SDS011;9919;58.014;11.826;2022-12-18T08:37:00;1.50;;;0.70;;
19547;SDS011;9919;58.014;11.826;2022-12-18T08:39:02;1.92;;;0.63;;
19547;SDS011;9919;58.014;11.826;2022-12-18T08:41:05;0.55;;;0.55;;
19547;SDS011;9919;58.014;11.826;2022-12-18T08:43:09;0.75;;;0.73;;
19547;SDS011;9919;58.014;11.826;2022-12-18T08:45:29;0.50;;;0.50;;
19547;SDS011;9919;58.014;11.826;2022-12-18T08:47:31;0.52;;;0.52;;
19547;SDS011;9919;58.014;11.826;2022-12-18T08:49:32;3.33;;;0.82;;
19547;SDS011;9919;58.014;11.826;2022-12-18T08:51:34;1.73;;;0.60;;
19547;SDS011;9919;58.014;11.826;2022-12-18T08:53:36;0.70;;;0.60;;
19547;SDS011;9919;58.014;11.826;2022-12-18T08:55:38;0.82;;;0.75;;
19547;SDS011;9919;58.014;11.826;2022-12-18T08:57:40;0.40;;;0.40;;
19547;SDS011;9919;58.014;11.826;2022-12-18T08:59:41;0.30;;;0.30;;
19547;SDS011;9919;58.014;11.826;2022-12-18T09:01:42;0.85;;;0.55;;
19547;SDS011;9919;58.014;11.826;2022-12-18T09:03:44;0.85;;;0.43;;
19547;SDS011;9919;58.014;11.826;2022-12-18T09:05:46;1.05;;;0.45;;
19547;SDS011;9919;58.014;11.826;2022-12-18T09:07:47;1.20;;;0.52;;
19547;SDS011;9919;58.014;11.826;2022-12-18T09:09:50;0.93;;;0.70;;
19547;SDS011;9919;58.014;11.826;2022-12-18T09:11:51;1.02;;;0.60;;
19547;SDS011;9919;58.014;11.826;2022-12-18T09:13:54;1.00;;;0.60;;
19547;SDS011;9919;58.014;11.826;2022-12-18T09:15:56;2.88;;;0.55;;
19547;SDS011;9919;58.014;11.826;2022-12-18T09:17:57;0.25;;;0.22;;
19547;SDS011;9919;58.014;11.826;2022-12-18T09:19:58;1.45;;;0.55;;
19547;SDS011;9919;58.014;11.826;2022-12-18T09:22:00;0.30;;;0.30;;
19547;SDS011;9919;58.014;11.826;2022-12-18T09:24:01;0.47;;;0.43;;
19547;SDS011;9919;58.014;11.826;2022-12-18T09:26:02;0.20;;;0.20;;
19547;SDS011;9919;58.014;11.826;2022-12-18T09:28:05;0.30;;;0.30;;
19547;SDS011;9919;58.014;11.826;2022-12-18T09:30:17;0.40;;;0.40;;
19547;SDS011;9919;58.014;11.826;2022-12-18T09:32:19;0.50;;;0.50;;
19547;SDS011;9919;58.014;11.826;2022-12-18T09:34:21;0.82;;;0.35;;
19547;SDS011;9919;58.014;11.826;2022-12-18T09:36:22;0.60;;;0.60;;
19547;SDS011;9919;58.014;11.826;2022-12-18T09:38:24;0.47;;;0.47;;
19547;SDS011;9919;58.014;11.826;2022-12-18T09:40:35;0.40;;;0.40;;
19547;SDS011;9919;58.014;11.826;2022-12-18T09:42:40;0.38;;;0.38;;
19547;SDS011;9919;58.014;11.826;2022-12-18T09:44:43;1.08;;;0.50;;
19547;SDS011;9919;58.014;11.826;2022-12-18T09:46:48;0.75;;;0.50;;
19547;SDS011;9919;58.014;11.826;2022-12-18T09:49:16;1.00;;;0.80;;
19547;SDS011;9919;58.014;11.826;2022-12-18T09:51:22;0.80;;;0.47;;
19547;SDS011;9919;58.014;11.826;2022-12-18T09:53:27;0.50;;;0.50;;
19547;SDS011;9919;58.014;11.826;2022-12-18T09:55:37;0.50;;;0.50;;
19547;SDS011;9919;58.014;11.826;2022-12-18T09:57:42;1.85;;;0.63;;
19547;SDS011;9919;58.014;11.826;2022-12-18T10:00:33;0.40;;;0.40;;
19547;SDS011;9919;58.014;11.826;2022-12-18T10:02:19;1.70;;;0.47;;
19547;SDS011;9919;58.014;11.826;2022-12-18T10:04:24;0.43;;;0.40;;
19547;SDS011;9919;58.014;11.826;2022-12-18T10:06:44;0.98;;;0.60;;
19547;SDS011;9919;58.014;11.826;2022-12-18T10:11:58;0.35;;;0.35;;
19547;SDS011;9919;58.014;11.826;2022-12-18T10:20:51;1.33;;;0.63;;
19547;SDS011;9919;58.014;11.826;2022-12-18T10:23:05;0.75;;;0.68;;
19547;SDS011;9919;58.014;11.826;2022-12-18T10:27:25;0.70;;;0.45;;
19547;SDS011;9919;58.014;11.826;2022-12-18T10:29:27;0.43;;;0.43;;
19547;SDS011;9919;58.014;11.826;2022-12-18T10:31:29;0.47;;;0.47;;
19547;SDS011;9919;58.014;11.826;2022-12-18T10:33:31;2.05;;;0.77;;
19547;SDS011;9919;58.014;11.826;2022-12-18T10:35:33;0.55;;;0.55;;
19547;SDS011;9919;58.014;11.826;2022-12-18T10:37:35;0.50;;;0.50;;
19547;SDS011;9919;58.014;11.826;2022-12-18T10:39:37;0.50;;;0.50;;
19547;SDS011;9919;58.014;11.826;2022-12-18T10:41:38;0.55;;;0.50;;
19547;SDS011;9919;58.014;11.826;2022-12-18T10:43:39;0.52;;;0.43;;
19547;SDS011;9919;58.014;11.826;2022-12-18T10:45:41;3.55;;;0.50;;
19547;SDS011;9919;58.014;11.826;2022-12-18T10:47:47;0.52;;;0.52;;
19547;SDS011;9919;58.014;11.826;2022-12-18T10:49:50;0.85;;;0.50;;
19547;SDS011;9919;58.014;11.826;2022-12-18T10:52:11;0.30;;;0.30;;
19547;SDS011;9919;58.014;11.826;2022-12-18T10:54:22;0.65;;;0.50;;
19547;SDS011;9919;58.014;11.826;2022-12-18T10:56:26;0.38;;;0.38;;
19547;SDS011;9919;58.014;11.826;2022-12-18T10:58:29;0.55;;;0.55;;
19547;SDS011;9919;58.014;11.826;2022-12-18T11:00:33;0.60;;;0.45;;
19547;SDS011;9919;58.014;11.826;2022-12-18T11:02:36;0.75;;;0.65;;
19547;SDS011;9919;58.014;11.826;2022-12-18T11:04:40;1.10;;;0.40;;
19547;SDS011;9919;58.014;11.826;2022-12-18T11:07:04;1.55;;;0.47;;
19547;SDS011;9919;58.014;11.826;2022-12-18T11:09:20;1.05;;;0.77;;
19547;SDS011;9919;58.014;11.826;2022-12-18T11:11:23;0.60;;;0.60;;
19547;SDS011;9919;58.014;11.826;2022-12-18T11:13:25;0.50;;;0.50;;
19547;SDS011;9919;58.014;11.826;2022-12-18T11:15:29;1.88;;;0.80;;
19547;SDS011;9919;58.014;11.826;2022-12-18T11:17:32;0.98;;;0.40;;
19547;SDS011;9919;58.014;11.826;2022-12-18T11:19:36;0.40;;;0.40;;
19547;SDS011;9919;58.014;11.826;2022-12-18T11:21:40;0.40;;;0.40;;
19547;SDS011;9919;58.014;11.826;2022-12-18T11:23:51;1.55;;;0.50;;
19547;SDS011;9919;58.014;11.826;2022-12-18T11:25:54;0.45;;;0.45;;
19547;SDS011;9919;58.014;11.826;2022-12-18T11:28:01;0.90;;;0.40;;
19547;SDS011;9919;58.014;11.826;2022-12-18T11:30:37;0.75;;;0.55;;
19547;SDS011;9919;58.014;11.826;2022-12-18T11:32:35;0.28;;;0.28;;
19547;SDS011;9919;58.014;11.826;2022-12-18T11:34:45;0.55;;;0.55;;
19547;SDS011;9919;58.014;11.826;2022-12-18T11:36:48;0.47;;;0.45;;
19547;SDS011;9919;58.014;11.826;2022-12-18T11:38:51;0.38;;;0.38;;
19547;SDS011;9919;58.014;11.826;2022-12-18T11:43:02;0.70;;;0.70;;
19547;SDS011;9919;58.014;11.826;2022-12-18T11:45:19;1.05;;;0.65;;
19547;SDS011;9919;58.014;11.826;2022-12-18T11:47:23;0.55;;;0.55;;
19547;SDS011;9919;58.014;11.826;2022-12-18T11:49:34;0.30;;;0.30;;
19547;SDS011;9919;58.014;11.826;2022-12-18T11:51:38;0.95;;;0.70;;
19547;SDS011;9919;58.014;11.826;2022-12-18T11:53:44;0.40;;;0.40;;
19547;SDS011;9919;58.014;11.826;2022-12-18T12:00:15;0.30;;;0.30;;
19547;SDS011;9919;58.014;11.826;2022-12-18T12:09:01;0.38;;;0.38;;
19547;SDS011;9919;58.014;11.826;2022-12-18T12:11:21;0.75;;;0.75;;
19547;SDS011;9919;58.014;11.826;2022-12-18T12:38:12;0.32;;;0.32;;
19547;SDS011;9919;58.014;11.826;2022-12-18T12:40:26;2.25;;;0.50;;
19547;SDS011;9919;58.014;11.826;2022-12-18T12:45:33;0.30;;;0.30;;
19547;SDS011;9919;58.014;11.826;2022-12-18T12:47:38;0.60;;;0.47;;
19547;SDS011;9919;58.014;11.826;2022-12-18T12:49:42;0.43;;;0.43;;
19547;SDS011;9919;58.014;11.826;2022-12-18T12:51:50;0.60;;;0.60;;
19547;SDS011;9919;58.014;11.826;2022-12-18T12:54:06;0.70;;;0.52;;
19547;SDS011;9919;58.014;11.826;2022-12-18T12:56:17;0.45;;;0.45;;
19547;SDS011;9919;58.014;11.826;2022-12-18T13:03:43;0.50;;;0.50;;
19547;SDS011;9919;58.014;11.826;2022-12-18T13:05:42;0.50;;;0.50;;
19547;SDS011;9919;58.014;11.826;2022-12-18T13:12:25;0.35;;;0.32;;
19547;SDS011;9919;58.014;11.826;2022-12-18T13:14:45;0.30;;;0.30;;
19547;SDS011;9919;58.014;11.826;2022-12-18T13:16:48;0.75;;;0.50;;
19547;SDS011;9919;58.014;11.826;2022-12-18T13:18:51;0.25;;;0.25;;
19547;SDS011;9919;58.014;11.826;2022-12-18T13:22:57;0.95;;;0.77;;
19547;SDS011;9919;58.014;11.826;2022-12-18T13:24:59;0.40;;;0.40;;
19547;SDS011;9919;58.014;11.826;2022-12-18T13:27:02;0.32;;;0.32;;
19547;SDS011;9919;58.014;11.826;2022-12-18T13:29:42;0.22;;;0.22;;
19547;SDS011;9919;58.014;11.826;2022-12-18T13:33:51;0.57;;;0.55;;
19547;SDS011;9919;58.014;11.826;2022-12-18T13:42:41;0.40;;;0.40;;
19547;SDS011;9919;58.014;11.826;2022-12-18T13:45:01;0.30;;;0.30;;
19547;SDS011;9919;58.014;11.826;2022-12-18T13:47:24;0.20;;;0.20;;
19547;SDS011;9919;58.014;11.826;2022-12-18T13:49:32;0.50;;;0.50;;
19547;SDS011;9919;58.014;11.826;2022-12-18T13:51:42;0.32;;;0.32;;
19547;SDS011;9919;58.014;11.826;2022-12-18T13:53:54;0.50;;;0.43;;
19547;SDS011;9919;58.014;11.826;2022-12-18T13:56:00;4.07;;;0.60;;
19547;SDS011;9919;58.014;11.826;2022-12-18T13:58:03;1.65;;;0.50;;
19547;SDS011;9919;58.014;11.826;2022-12-18T14:00:47;0.20;;;0.20;;
19547;SDS011;9919;58.014;11.826;2022-12-18T14:02:30;0.30;;;0.30;;
19547;SDS011;9919;58.014;11.826;2022-12-18T14:04:33;0.50;;;0.50;;
19547;SDS011;9919;58.014;11.826;2022-12-18T14:06:35;0.45;;;0.40;;
19547;SDS011;9919;58.014;11.826;2022-12-18T14:08:38;3.25;;;0.57;;
19547;SDS011;9919;58.014;11.826;2022-12-18T14:10:45;0.30;;;0.30;;
19547;SDS011;9919;58.014;11.826;2022-12-18T14:12:48;0.68;;;0.30;;
19547;SDS011;9919;58.014;11.826;2022-12-18T14:14:56;0.98;;;0.40;;
19547;SDS011;9919;58.014;11.826;2022-12-18T14:16:57;2.70;;;0.57;;
19547;SDS011;9919;58.014;11.826;2022-12-18T14:19:00;0.57;;;0.55;;